Silver Cloud — C6MQ5 — position and weather

sailwx.info

Track history (hours):
 
Tides and Currents Weather Stations Pressure Air Temp Water Temp Dewpoint Dewpoint Depression Visibility Wind Speed Wind Dir Waves Ship Positions

Silver Cloud

Operator: V Ships Leisure SAM

Last reported at 2018-May-22 10:13 UTC. Time now 2018-May-23 05:27 UTC.
Position N 56°30' W 005°42'.

Length 156 m; draft 5.8 m.

Type: Passenger vessel. MMSI: 309027000.

Date/timePositionNaut miles runAvg speedWind from/ knotsBaromVisibWave heightAir tempDewpointWater temp
2018-May-22 10:13N 56°30' W 005°42'315.9
2018-May-22 10:00N 56°27' W 005°38'5 1.3
2018-May-22 05:58N 56°25' W 005°29'1 1.4
2018-May-22 05:30N 56°26' W 005°30'3 5.9
2018-May-22 05:00N 56°26' W 005°35'3 5.6
2018-May-22 04:30N 56°24' W 005°38'3 5.0
2018-May-22 03:59N 56°21' W 005°40'44 1.8
2018-May-21 03:16N 55°51' W 006°37'312.0
2018-May-21 03:00N 55°48' W 006°38'612.2
2018-May-21 02:30N 55°42' W 006°40'612.0
2018-May-21 02:00N 55°37' W 006°33'612.8
2018-May-21 01:30N 55°33' W 006°25'713.4
2018-May-21 01:00N 55°28' W 006°17'712.9
2018-May-21 00:29N 55°25' W 006°07'612.2
2018-May-21 00:00N 55°21' W 005°59'611.5
2018-May-20 23:30N 55°16' W 005°53'611.6
2018-May-20 23:00N 55°11' W 005°47'1712.0
2018-May-20 21:33N 54°57' W 005°29'012.4
2018-May-20 21:30N 54°57' W 005°29'612.7
2018-May-20 21:00N 54°52' W 005°23'612.7
2018-May-20 20:30N 54°47' W 005°16'713.2
2018-May-20 20:00N 54°41' W 005°10'713.2
2018-May-20 19:30N 54°35' W 005°07'918.0
2018-May-20 19:00N 54°26' W 005°03'1019.0
2018-May-20 18:30N 54°17' W 004°59'1018.9
2018-May-20 17:58N 54°07' W 004°55'1115.9
2018-May-20 17:15N 54°01' W 004°39'520.2
2018-May-20 16:59N 54°04' W 004°32'1 0.1
2018-May-20 04:31N 54°05' W 004°31'0 8.5
2018-May-20 04:30N 54°04' W 004°31'4 8.1
2018-May-20 04:00N 54°02' W 004°36'3 6.6
2018-May-20 03:30N 53°60' W 004°41'3 6.3
2018-May-20 03:00N 53°58' W 004°45'3 6.3
2018-May-20 02:30N 53°56' W 004°49'3 6.0
2018-May-20 02:00N 53°54' W 004°53'3 6.0
2018-May-20 01:30N 53°52' W 004°57'3 6.4
2018-May-20 01:00N 53°50' W 005°01'3 6.4
2018-May-20 00:29N 53°48' W 005°05'7 6.7
2018-May-19 23:24N 53°43' W 005°15'3 7.2
2018-May-19 22:57N 53°41' W 005°19'3 7.1
2018-May-19 22:30N 53°39' W 005°23'4 8.1
2018-May-19 22:00N 53°37' W 005°29'4 8.7
2018-May-19 21:30N 53°34' W 005°34'16 8.4
2018-May-19 19:35N 53°24' W 005°55'1 8.2
2018-May-19 19:28N 53°23' W 005°57'4 8.0
2018-May-19 18:59N 53°21' W 006°02'4 7.8
2018-May-19 18:30N 53°21' W 006°08'3 6.6
2018-May-19 18:00N 53°21' W 006°13'0 0.0
2018-May-19 16:05N 53°21' W 006°13'0 0.0
2018-May-19 09:35N 53°21' W 006°13'0 0.0
2018-May-19 09:23N 53°21' W 006°13'0 0.0
2018-May-19 08:59N 53°21' W 006°13'0 0.0
2018-May-19 08:29N 53°21' W 006°13'0 0.0
2018-May-19 07:59N 53°21' W 006°13'0 0.0
2018-May-19 07:29N 53°21' W 006°13'0 0.0
2018-May-19 05:46N 53°21' W 006°13'0 0.7
2018-May-19 05:29N 53°21' W 006°13'1 2.3
2018-May-19 04:59N 53°21' W 006°11'510.3
2018-May-19 04:30N 53°21' W 006°03'4 8.3
2018-May-19 04:00N 53°24' W 005°59'612.1
2018-May-19 03:29N 53°30' W 005°55'611.9
2018-May-19 03:00N 53°35' W 005°51'611.9
2018-May-19 02:30N 53°41' W 005°49'611.8
2018-May-19 02:00N 53°46' W 005°44'611.7
2018-May-19 01:29N 53°52' W 005°39'611.6
2018-May-19 00:59N 53°57' W 005°35'612.2
2018-May-19 00:29N 54°03' W 005°31'612.3
2018-May-19 00:00N 54°08' W 005°27'612.4
2018-May-18 23:30N 54°14' W 005°23'612.2
2018-May-18 23:00N 54°19' W 005°19'612.2
2018-May-18 22:30N 54°25' W 005°17'714.3
2018-May-18 22:00N 54°32' W 005°18'714.8
2018-May-18 21:30N 54°40' W 005°19'713.5
2018-May-18 21:00N 54°45' W 005°25'713.7
2018-May-18 20:30N 54°51' W 005°31'714.1
2018-May-18 20:00N 54°57' W 005°38'2214.2
2018-May-18 18:27N 55°14' W 006°03'614.2
2018-May-18 18:00N 55°14' W 006°14'713.0
2018-May-18 17:30N 55°17' W 006°25'712.5
2018-May-18 16:57N 55°15' W 006°37'3 7.5
2018-May-18 16:30N 55°12' W 006°40'0 0.1
2018-May-18 16:00N 55°12' W 006°40'0 0.0
2018-May-18 15:28N 55°12' W 006°40'0 0.0
2018-May-18 15:00N 55°12' W 006°40'0 0.0
2018-May-18 14:30N 55°12' W 006°40'0 0.0
2018-May-18 14:00N 55°12' W 006°40'0 0.0
2018-May-18 13:28N 55°12' W 006°40'0 0.1
2018-May-18 12:57N 55°12' W 006°40'0 0.0
2018-May-18 12:28N 55°12' W 006°40'0 0.0
2018-May-18 12:00N 55°12' W 006°40'0 0.1
2018-May-18 11:30N 55°12' W 006°40'0 0.0
2018-May-18 11:00N 55°12' W 006°40'0 0.0
2018-May-18 10:31N 55°12' W 006°40'0 0.0
2018-May-18 09:57N 55°12' W 006°40'0 0.0
2018-May-18 09:30N 55°12' W 006°40'0 0.0
2018-May-18 09:01N 55°12' W 006°40'0 0.0
2018-May-18 08:30N 55°12' W 006°40'0 0.0
2018-May-18 08:01N 55°12' W 006°40'0 0.0
2018-May-18 07:30N 55°12' W 006°40'0 0.0
2018-May-18 06:57N 55°13' W 006°40'0 0.0
2018-May-18 06:30N 55°13' W 006°40'0 0.0
2018-May-18 06:00N 55°13' W 006°40'1 2.3
2018-May-18 05:30N 55°13' W 006°42'5 9.9
2018-May-18 05:00N 55°16' W 006°48'612.4
2018-May-18 04:30N 55°20' W 006°57'611.2
2018-May-18 04:00N 55°24' W 007°04'510.6
2018-May-18 03:30N 55°28' W 007°11'5 9.3
2018-May-18 02:59N 55°28' W 007°20'6 9.7
2018-May-18 02:24N 55°27' W 007°29'4 9.3
2018-May-18 01:59N 55°26' W 007°36'6 9.5
2018-May-18 01:22N 55°25' W 007°46'4 9.9
2018-May-18 01:00N 55°24' W 007°52'5 9.9
2018-May-18 00:28N 55°23' W 008°02'6 9.7
2018-May-17 23:51N 55°22' W 008°12'5 9.9
2018-May-17 23:18N 55°20' W 008°21'310.5
2018-May-17 23:00N 55°18' W 008°25'510.7
2018-May-17 22:30N 55°14' W 008°31'910.8
2018-May-17 21:39N 55°06' W 008°39'2112.5
2018-May-17 19:58N 54°46' W 008°51'10 9.3
2018-May-17 18:52N 54°37' W 008°42'411.1
2018-May-17 18:29N 54°35' W 008°37'511.0
2018-May-17 18:00N 54°36' W 008°28'2 3.2
2018-May-17 17:23N 54°38' W 008°26'0 0.0
2018-May-17 16:59N 54°38' W 008°26'0 0.0
2018-May-17 16:29N 54°38' W 008°26'0 0.0
2018-May-17 15:59N 54°38' W 008°26'0 0.0
2018-May-17 15:29N 54°38' W 008°26'0 0.0
2018-May-17 14:59N 54°38' W 008°26'0 0.0
2018-May-17 14:26N 54°38' W 008°26'0 0.0
2018-May-17 13:59N 54°38' W 008°26'0 0.0
2018-May-17 13:29N 54°38' W 008°26'0 0.0
2018-May-17 12:56N 54°38' W 008°26'0 0.0
2018-May-17 12:26N 54°38' W 008°26'0 0.0
2018-May-17 11:59N 54°38' W 008°26'0 0.0
2018-May-17 11:29N 54°38' W 008°26'0 0.0
2018-May-17 10:56N 54°38' W 008°26'0 0.0
2018-May-17 10:29N 54°38' W 008°26'0 0.0
2018-May-17 09:53N 54°38' W 008°26'0 0.0
2018-May-17 09:26N 54°38' W 008°26'0 0.0
2018-May-17 08:56N 54°38' W 008°26'0 0.0
2018-May-17 08:16N 54°38' W 008°26'0 0.0
2018-May-17 07:58N 54°38' W 008°26'0 0.0
2018-May-17 07:29N 54°38' W 008°26'0 0.0
2018-May-17 06:56N 54°38' W 008°26'0 0.0
2018-May-17 06:26N 54°38' W 008°26'2 3.4
2018-May-17 05:57N 54°36' W 008°27'4 9.2
2018-May-17 05:29N 54°34' W 008°34'712.5
2018-May-17 04:58N 54°33' W 008°45'1313.0
2018-May-17 03:57N 54°31' W 009°07'613.1
2018-May-17 03:30N 54°32' W 009°17'713.1
2018-May-17 02:58N 54°34' W 009°29'812.9
2018-May-17 02:19N 54°36' W 009°43'412.8
2018-May-17 02:00N 54°36' W 009°50'712.8
2018-May-17 01:27N 54°36' W 010°02'612.7
2018-May-17 00:58N 54°35' W 010°12'1410.7
2018-May-16 23:38N 54°24' W 010°28'313.2
2018-May-16 23:27N 54°22' W 010°28'713.2
2018-May-16 22:57N 54°15' W 010°28'813.9
2018-May-16 22:24N 54°07' W 010°28'513.4
2018-May-16 22:00N 54°02' W 010°26'714.2
2018-May-16 21:30N 53°57' W 010°18'814.3
2018-May-16 20:59N 53°54' W 010°07'612.8
2018-May-16 20:29N 53°50' W 009°58'1 1.4
2018-May-16 20:00N 53°50' W 009°58'0 0.0
2018-May-16 19:30N 53°50' W 009°58'0 0.0
2018-May-16 18:57N 53°50' W 009°58'0 0.0
2018-May-16 18:30N 53°50' W 009°58'0 0.1
2018-May-16 18:00N 53°50' W 009°58'0 0.0
2018-May-16 17:24N 53°50' W 009°58'0 0.0
2018-May-16 17:00N 53°50' W 009°58'0 0.0
2018-May-16 16:21N 53°50' W 009°58'0 0.1
2018-May-16 16:00N 53°50' W 009°58'0 0.1
2018-May-16 15:30N 53°50' W 009°58'3 5.2
2018-May-16 14:58N 53°47' W 009°56'816.2
2018-May-16 14:27N 53°46' W 010°09'917.7
2018-May-16 13:58N 53°39' W 010°19'715.0
2018-May-16 13:30N 53°32' W 010°20'816.4
2018-May-16 13:00N 53°24' W 010°17'816.0
2018-May-16 12:30N 53°18' W 010°09'817.0
2018-May-16 12:00N 53°12' W 009°59'1412.7
2018-May-16 10:52N 53°07' W 009°37'0 0.2
2018-May-16 10:25N 53°07' W 009°37'0 0.2
2018-May-16 09:55N 53°07' W 009°37'0 0.0
2018-May-16 08:40N 53°07' W 009°37'1 0.4
2018-May-16 06:04N 53°07' W 009°39'0 0.0
2018-May-16 05:46N 53°07' W 009°39'0 0.0
2018-May-16 05:22N 53°07' W 009°39'18 3.0
2018-May-15 23:31N 53°13' W 009°11'45 2.1
2018-May-15 01:33N 52°38' W 009°59'0 8.0
2018-May-15 01:30N 52°38' W 009°60'4 8.4
2018-May-15 00:59N 52°35' W 010°05'4 9.1
2018-May-15 00:30N 52°32' W 010°10'5 9.8
2018-May-14 23:59N 52°28' W 010°16'510.0
2018-May-14 23:30N 52°25' W 010°21'610.7
2018-May-14 22:59N 52°21' W 010°28'611.1
2018-May-14 22:29N 52°17' W 010°34'511.0
2018-May-14 21:59N 52°13' W 010°41'611.2
2018-May-14 21:28N 52°09' W 010°47'1010.8
2018-May-14 20:35N 51°60' W 010°45'211.3
2018-May-14 20:26N 51°58' W 010°44'711.3
2018-May-14 19:52N 51°53' W 010°37'8 1.5
2018-May-14 14:18N 51°56' W 010°25'3 0.3
2018-May-14 04:29N 51°58' W 010°21'510.8
2018-May-14 03:59N 51°54' W 010°28'610.8
2018-May-14 03:27N 51°49' W 010°29'1319.0
2018-May-14 02:46N 51°36' W 010°25'1 4.0
2018-May-14 02:30N 51°35' W 010°25'1223.7
2018-May-14 01:59N 51°27' W 010°09'2 2.7
2018-May-14 01:18N 51°27' W 010°06'516.9
2018-May-14 01:00N 51°24' W 009°60'917.3
2018-May-14 00:30N 51°20' W 009°47'816.4
2018-May-14 00:00N 51°21' W 009°34'917.4
2018-May-13 23:30N 51°23' W 009°20'917.9
2018-May-13 23:00N 51°24' W 009°06'918.2
2018-May-13 22:30N 51°25' W 008°52'1018.4
2018-May-13 21:58N 51°26' W 008°36'918.5
2018-May-13 21:30N 51°27' W 008°22'918.4
2018-May-13 21:00N 51°28' W 008°08'918.3
2018-May-13 20:30N 51°29' W 007°53'918.0
2018-May-13 20:00N 51°31' W 007°39'918.2
2018-May-13 19:29N 51°32' W 007°24'7117.7
2018-May-13 15:27N 51°42' W 005°30'816.2
2018-May-13 14:59N 51°45' W 005°19'1 1.4
2018-May-13 14:30N 51°45' W 005°17'1 2.5
2018-May-13 14:00N 51°44' W 005°17'510.5
2018-May-13 13:30N 51°41' W 005°10'611.7
2018-May-13 13:00N 51°42' W 005°00'2 4.1
2018-May-13 12:29N 51°42' W 004°57'0 0.0
2018-May-13 11:56N 51°42' W 004°57'0 0.0
2018-May-13 11:26N 51°42' W 004°57'0 0.0
2018-May-13 10:50N 51°42' W 004°57'0 0.0
2018-May-13 10:26N 51°42' W 004°57'0 0.0
2018-May-13 09:59N 51°42' W 004°57'0 0.0
2018-May-13 09:20N 51°42' W 004°57'0 0.0
2018-May-13 08:59N 51°42' W 004°57'0 0.0
2018-May-13 08:29N 51°42' W 004°57'0 0.0
2018-May-13 07:59N 51°42' W 004°57'0 0.0
2018-May-13 07:29N 51°42' W 004°57'0 0.0
2018-May-13 06:59N 51°42' W 004°57'0 0.0
2018-May-13 06:29N 51°42' W 004°57'0 0.0
2018-May-13 05:59N 51°42' W 004°57'0 0.0
2018-May-13 05:29N 51°42' W 004°57'0 0.0
2018-May-13 04:56N 51°42' W 004°57'0 0.0
2018-May-13 04:31N 51°42' W 004°57'1 1.4
2018-May-13 04:01N 51°42' W 004°58'3 6.0
2018-May-13 03:31N 51°42' W 005°03'5 9.1
2018-May-13 03:00N 51°41' W 005°10'510.5
2018-May-13 02:30N 51°36' W 005°14'4 8.2
2018-May-13 02:00N 51°32' W 005°17'4 8.3
2018-May-13 01:30N 51°29' W 005°20'611.2
2018-May-13 01:01N 51°24' W 005°23'3012.0
2018-May-12 22:32N 50°57' W 005°43'1912.8
2018-May-12 21:03N 50°39' W 005°56'  
Track history (hours):
 
Tides and Currents Weather Stations Pressure Air Temp Water Temp Dewpoint Dewpoint Depression Visibility Wind Speed Wind Dir Waves Ship Positions

Silver Cloud

Operator: V Ships Leisure SAM

Last reported at 2018-May-22 10:13 UTC. Time now 2018-May-23 05:27 UTC.
Position N 56°30' W 005°42'.

Length 156 m; draft 5.8 m.

Type: Passenger vessel. MMSI: 309027000.

Date/timePositionNaut miles runAvg speedWind from/ knotsBaromVisibWave heightAir tempDewpointWater temp
2018-May-22 10:13N 56°30' W 005°42'315.9
2018-May-22 10:00N 56°27' W 005°38'5 1.3
2018-May-22 05:58N 56°25' W 005°29'1 1.4
2018-May-22 05:30N 56°26' W 005°30'3 5.9
2018-May-22 05:00N 56°26' W 005°35'3 5.6
2018-May-22 04:30N 56°24' W 005°38'3 5.0
2018-May-22 03:59N 56°21' W 005°40'44 1.8
2018-May-21 03:16N 55°51' W 006°37'312.0
2018-May-21 03:00N 55°48' W 006°38'612.2
2018-May-21 02:30N 55°42' W 006°40'612.0
2018-May-21 02:00N 55°37' W 006°33'612.8
2018-May-21 01:30N 55°33' W 006°25'713.4
2018-May-21 01:00N 55°28' W 006°17'712.9
2018-May-21 00:29N 55°25' W 006°07'612.2
2018-May-21 00:00N 55°21' W 005°59'611.5
2018-May-20 23:30N 55°16' W 005°53'611.6
2018-May-20 23:00N 55°11' W 005°47'1712.0
2018-May-20 21:33N 54°57' W 005°29'012.4
2018-May-20 21:30N 54°57' W 005°29'612.7
2018-May-20 21:00N 54°52' W 005°23'612.7
2018-May-20 20:30N 54°47' W 005°16'713.2
2018-May-20 20:00N 54°41' W 005°10'713.2
2018-May-20 19:30N 54°35' W 005°07'918.0
2018-May-20 19:00N 54°26' W 005°03'1019.0
2018-May-20 18:30N 54°17' W 004°59'1018.9
2018-May-20 17:58N 54°07' W 004°55'1115.9
2018-May-20 17:15N 54°01' W 004°39'520.2
2018-May-20 16:59N 54°04' W 004°32'1 0.1
2018-May-20 04:31N 54°05' W 004°31'0 8.5
2018-May-20 04:30N 54°04' W 004°31'4 8.1
2018-May-20 04:00N 54°02' W 004°36'3 6.6
2018-May-20 03:30N 53°60' W 004°41'3 6.3
2018-May-20 03:00N 53°58' W 004°45'3 6.3
2018-May-20 02:30N 53°56' W 004°49'3 6.0
2018-May-20 02:00N 53°54' W 004°53'3 6.0
2018-May-20 01:30N 53°52' W 004°57'3 6.4
2018-May-20 01:00N 53°50' W 005°01'3 6.4
2018-May-20 00:29N 53°48' W 005°05'7 6.7
2018-May-19 23:24N 53°43' W 005°15'3 7.2
2018-May-19 22:57N 53°41' W 005°19'3 7.1
2018-May-19 22:30N 53°39' W 005°23'4 8.1
2018-May-19 22:00N 53°37' W 005°29'4 8.7
2018-May-19 21:30N 53°34' W 005°34'16 8.4
2018-May-19 19:35N 53°24' W 005°55'1 8.2
2018-May-19 19:28N 53°23' W 005°57'4 8.0
2018-May-19 18:59N 53°21' W 006°02'4 7.8
2018-May-19 18:30N 53°21' W 006°08'3 6.6
2018-May-19 18:00N 53°21' W 006°13'0 0.0
2018-May-19 16:05N 53°21' W 006°13'0 0.0
2018-May-19 09:35N 53°21' W 006°13'0 0.0
2018-May-19 09:23N 53°21' W 006°13'0 0.0
2018-May-19 08:59N 53°21' W 006°13'0 0.0
2018-May-19 08:29N 53°21' W 006°13'0 0.0
2018-May-19 07:59N 53°21' W 006°13'0 0.0
2018-May-19 07:29N 53°21' W 006°13'0 0.0
2018-May-19 05:46N 53°21' W 006°13'0 0.7
2018-May-19 05:29N 53°21' W 006°13'1 2.3
2018-May-19 04:59N 53°21' W 006°11'510.3
2018-May-19 04:30N 53°21' W 006°03'4 8.3
2018-May-19 04:00N 53°24' W 005°59'612.1
2018-May-19 03:29N 53°30' W 005°55'611.9
2018-May-19 03:00N 53°35' W 005°51'611.9
2018-May-19 02:30N 53°41' W 005°49'611.8
2018-May-19 02:00N 53°46' W 005°44'611.7
2018-May-19 01:29N 53°52' W 005°39'611.6
2018-May-19 00:59N 53°57' W 005°35'612.2
2018-May-19 00:29N 54°03' W 005°31'612.3
2018-May-19 00:00N 54°08' W 005°27'612.4
2018-May-18 23:30N 54°14' W 005°23'612.2
2018-May-18 23:00N 54°19' W 005°19'612.2
2018-May-18 22:30N 54°25' W 005°17'714.3
2018-May-18 22:00N 54°32' W 005°18'714.8
2018-May-18 21:30N 54°40' W 005°19'713.5
2018-May-18 21:00N 54°45' W 005°25'713.7
2018-May-18 20:30N 54°51' W 005°31'714.1
2018-May-18 20:00N 54°57' W 005°38'2214.2
2018-May-18 18:27N 55°14' W 006°03'614.2
2018-May-18 18:00N 55°14' W 006°14'713.0
2018-May-18 17:30N 55°17' W 006°25'712.5
2018-May-18 16:57N 55°15' W 006°37'3 7.5
2018-May-18 16:30N 55°12' W 006°40'0 0.1
2018-May-18 16:00N 55°12' W 006°40'0 0.0
2018-May-18 15:28N 55°12' W 006°40'0 0.0
2018-May-18 15:00N 55°12' W 006°40'0 0.0
2018-May-18 14:30N 55°12' W 006°40'0 0.0
2018-May-18 14:00N 55°12' W 006°40'0 0.0
2018-May-18 13:28N 55°12' W 006°40'0 0.1
2018-May-18 12:57N 55°12' W 006°40'0 0.0
2018-May-18 12:28N 55°12' W 006°40'0 0.0
2018-May-18 12:00N 55°12' W 006°40'0 0.1
2018-May-18 11:30N 55°12' W 006°40'0 0.0
2018-May-18 11:00N 55°12' W 006°40'0 0.0
2018-May-18 10:31N 55°12' W 006°40'0 0.0
2018-May-18 09:57N 55°12' W 006°40'0 0.0
2018-May-18 09:30N 55°12' W 006°40'0 0.0
2018-May-18 09:01N 55°12' W 006°40'0 0.0
2018-May-18 08:30N 55°12' W 006°40'0 0.0
2018-May-18 08:01N 55°12' W 006°40'0 0.0
2018-May-18 07:30N 55°12' W 006°40'0 0.0
2018-May-18 06:57N 55°13' W 006°40'0 0.0
2018-May-18 06:30N 55°13' W 006°40'0 0.0
2018-May-18 06:00N 55°13' W 006°40'1 2.3
2018-May-18 05:30N 55°13' W 006°42'5 9.9
2018-May-18 05:00N 55°16' W 006°48'612.4
2018-May-18 04:30N 55°20' W 006°57'611.2
2018-May-18 04:00N 55°24' W 007°04'510.6
2018-May-18 03:30N 55°28' W 007°11'5 9.3
2018-May-18 02:59N 55°28' W 007°20'6 9.7
2018-May-18 02:24N 55°27' W 007°29'4 9.3
2018-May-18 01:59N 55°26' W 007°36'6 9.5
2018-May-18 01:22N 55°25' W 007°46'4 9.9
2018-May-18 01:00N 55°24' W 007°52'5 9.9
2018-May-18 00:28N 55°23' W 008°02'6 9.7
2018-May-17 23:51N 55°22' W 008°12'5 9.9
2018-May-17 23:18N 55°20' W 008°21'310.5
2018-May-17 23:00N 55°18' W 008°25'510.7
2018-May-17 22:30N 55°14' W 008°31'910.8
2018-May-17 21:39N 55°06' W 008°39'2112.5
2018-May-17 19:58N 54°46' W 008°51'10 9.3
2018-May-17 18:52N 54°37' W 008°42'411.1
2018-May-17 18:29N 54°35' W 008°37'511.0
2018-May-17 18:00N 54°36' W 008°28'2 3.2
2018-May-17 17:23N 54°38' W 008°26'0 0.0
2018-May-17 16:59N 54°38' W 008°26'0 0.0
2018-May-17 16:29N 54°38' W 008°26'0 0.0
2018-May-17 15:59N 54°38' W 008°26'0 0.0
2018-May-17 15:29N 54°38' W 008°26'0 0.0
2018-May-17 14:59N 54°38' W 008°26'0 0.0
2018-May-17 14:26N 54°38' W 008°26'0 0.0
2018-May-17 13:59N 54°38' W 008°26'0 0.0
2018-May-17 13:29N 54°38' W 008°26'0 0.0
2018-May-17 12:56N 54°38' W 008°26'0 0.0
2018-May-17 12:26N 54°38' W 008°26'0 0.0
2018-May-17 11:59N 54°38' W 008°26'0 0.0
2018-May-17 11:29N 54°38' W 008°26'0 0.0
2018-May-17 10:56N 54°38' W 008°26'0 0.0
2018-May-17 10:29N 54°38' W 008°26'0 0.0
2018-May-17 09:53N 54°38' W 008°26'0 0.0
2018-May-17 09:26N 54°38' W 008°26'0 0.0
2018-May-17 08:56N 54°38' W 008°26'0 0.0
2018-May-17 08:16N 54°38' W 008°26'0 0.0
2018-May-17 07:58N 54°38' W 008°26'0 0.0
2018-May-17 07:29N 54°38' W 008°26'0 0.0
2018-May-17 06:56N 54°38' W 008°26'0 0.0
2018-May-17 06:26N 54°38' W 008°26'2 3.4
2018-May-17 05:57N 54°36' W 008°27'4 9.2
2018-May-17 05:29N 54°34' W 008°34'712.5
2018-May-17 04:58N 54°33' W 008°45'1313.0
2018-May-17 03:57N 54°31' W 009°07'613.1
2018-May-17 03:30N 54°32' W 009°17'713.1
2018-May-17 02:58N 54°34' W 009°29'812.9
2018-May-17 02:19N 54°36' W 009°43'412.8
2018-May-17 02:00N 54°36' W 009°50'712.8
2018-May-17 01:27N 54°36' W 010°02'612.7
2018-May-17 00:58N 54°35' W 010°12'1410.7
2018-May-16 23:38N 54°24' W 010°28'313.2
2018-May-16 23:27N 54°22' W 010°28'713.2
2018-May-16 22:57N 54°15' W 010°28'813.9
2018-May-16 22:24N 54°07' W 010°28'513.4
2018-May-16 22:00N 54°02' W 010°26'714.2
2018-May-16 21:30N 53°57' W 010°18'814.3
2018-May-16 20:59N 53°54' W 010°07'612.8
2018-May-16 20:29N 53°50' W 009°58'1 1.4
2018-May-16 20:00N 53°50' W 009°58'0 0.0
2018-May-16 19:30N 53°50' W 009°58'0 0.0
2018-May-16 18:57N 53°50' W 009°58'0 0.0
2018-May-16 18:30N 53°50' W 009°58'0 0.1
2018-May-16 18:00N 53°50' W 009°58'0 0.0
2018-May-16 17:24N 53°50' W 009°58'0 0.0
2018-May-16 17:00N 53°50' W 009°58'0 0.0
2018-May-16 16:21N 53°50' W 009°58'0 0.1
2018-May-16 16:00N 53°50' W 009°58'0 0.1
2018-May-16 15:30N 53°50' W 009°58'3 5.2
2018-May-16 14:58N 53°47' W 009°56'816.2
2018-May-16 14:27N 53°46' W 010°09'917.7
2018-May-16 13:58N 53°39' W 010°19'715.0
2018-May-16 13:30N 53°32' W 010°20'816.4
2018-May-16 13:00N 53°24' W 010°17'816.0
2018-May-16 12:30N 53°18' W 010°09'817.0
2018-May-16 12:00N 53°12' W 009°59'1412.7
2018-May-16 10:52N 53°07' W 009°37'0 0.2
2018-May-16 10:25N 53°07' W 009°37'0 0.2
2018-May-16 09:55N 53°07' W 009°37'0 0.0
2018-May-16 08:40N 53°07' W 009°37'1 0.4
2018-May-16 06:04N 53°07' W 009°39'0 0.0
2018-May-16 05:46N 53°07' W 009°39'0 0.0
2018-May-16 05:22N 53°07' W 009°39'18 3.0
2018-May-15 23:31N 53°13' W 009°11'45 2.1
2018-May-15 01:33N 52°38' W 009°59'0 8.0
2018-May-15 01:30N 52°38' W 009°60'4 8.4
2018-May-15 00:59N 52°35' W 010°05'4 9.1
2018-May-15 00:30N 52°32' W 010°10'5 9.8
2018-May-14 23:59N 52°28' W 010°16'510.0
2018-May-14 23:30N 52°25' W 010°21'610.7
2018-May-14 22:59N 52°21' W 010°28'611.1
2018-May-14 22:29N 52°17' W 010°34'511.0
2018-May-14 21:59N 52°13' W 010°41'611.2
2018-May-14 21:28N 52°09' W 010°47'1010.8
2018-May-14 20:35N 51°60' W 010°45'211.3
2018-May-14 20:26N 51°58' W 010°44'711.3
2018-May-14 19:52N 51°53' W 010°37'8 1.5
2018-May-14 14:18N 51°56' W 010°25'3 0.3
2018-May-14 04:29N 51°58' W 010°21'510.8
2018-May-14 03:59N 51°54' W 010°28'610.8
2018-May-14 03:27N 51°49' W 010°29'1319.0
2018-May-14 02:46N 51°36' W 010°25'1 4.0
2018-May-14 02:30N 51°35' W 010°25'1223.7
2018-May-14 01:59N 51°27' W 010°09'2 2.7
2018-May-14 01:18N 51°27' W 010°06'516.9
2018-May-14 01:00N 51°24' W 009°60'917.3
2018-May-14 00:30N 51°20' W 009°47'816.4
2018-May-14 00:00N 51°21' W 009°34'917.4
2018-May-13 23:30N 51°23' W 009°20'917.9
2018-May-13 23:00N 51°24' W 009°06'918.2
2018-May-13 22:30N 51°25' W 008°52'1018.4
2018-May-13 21:58N 51°26' W 008°36'918.5
2018-May-13 21:30N 51°27' W 008°22'918.4
2018-May-13 21:00N 51°28' W 008°08'918.3
2018-May-13 20:30N 51°29' W 007°53'918.0
2018-May-13 20:00N 51°31' W 007°39'918.2
2018-May-13 19:29N 51°32' W 007°24'7117.7
2018-May-13 15:27N 51°42' W 005°30'816.2
2018-May-13 14:59N 51°45' W 005°19'1 1.4
2018-May-13 14:30N 51°45' W 005°17'1 2.5
2018-May-13 14:00N 51°44' W 005°17'510.5
2018-May-13 13:30N 51°41' W 005°10'611.7
2018-May-13 13:00N 51°42' W 005°00'2 4.1
2018-May-13 12:29N 51°42' W 004°57'0 0.0
2018-May-13 11:56N 51°42' W 004°57'0 0.0
2018-May-13 11:26N 51°42' W 004°57'0 0.0
2018-May-13 10:50N 51°42' W 004°57'0 0.0
2018-May-13 10:26N 51°42' W 004°57'0 0.0
2018-May-13 09:59N 51°42' W 004°57'0 0.0
2018-May-13 09:20N 51°42' W 004°57'0 0.0
2018-May-13 08:59N 51°42' W 004°57'0 0.0
2018-May-13 08:29N 51°42' W 004°57'0 0.0
2018-May-13 07:59N 51°42' W 004°57'0 0.0
2018-May-13 07:29N 51°42' W 004°57'0 0.0
2018-May-13 06:59N 51°42' W 004°57'0 0.0
2018-May-13 06:29N 51°42' W 004°57'0 0.0
2018-May-13 05:59N 51°42' W 004°57'0 0.0
2018-May-13 05:29N 51°42' W 004°57'0 0.0
2018-May-13 04:56N 51°42' W 004°57'0 0.0
2018-May-13 04:31N 51°42' W 004°57'1 1.4
2018-May-13 04:01N 51°42' W 004°58'3 6.0
2018-May-13 03:31N 51°42' W 005°03'5 9.1
2018-May-13 03:00N 51°41' W 005°10'510.5
2018-May-13 02:30N 51°36' W 005°14'4 8.2
2018-May-13 02:00N 51°32' W 005°17'4 8.3
2018-May-13 01:30N 51°29' W 005°20'611.2
2018-May-13 01:01N 51°24' W 005°23'3012.0
2018-May-12 22:32N 50°57' W 005°43'1912.8
2018-May-12 21:03N 50°39' W 005°56'  

Dump ship's entire track history